Time;durP1;ratioP1;P1;durP2;ratioP2;P2;SDS_P1;SDS_P2;PMS_P1;PMS_P2;Temp;Humidity;BMP_temperature;BMP_pressure;BME280_temperature;BME280_humidity;BME280_pressure;Samples;Min_cycle;Max_cycle;Signal;HPM_P1;HPM_P2
2023/09/27 00:00:45;;;;;;;;;9.67;9.67;;;;;22.80;64.96;101162.97;4885884;29;45696;-89
2023/09/27 00:03:11;;;;;;;;;9.00;8.33;;;;;22.77;64.79;101163.94;4886692;29;46901;-89
2023/09/27 00:05:45;;;;;;;;;8.33;8.33;;;;;22.76;65.15;101161.28;4887321;29;44821;-89
2023/09/27 00:08:11;;;;;;;;;12.67;11.00;;;;;22.74;65.38;101158.63;4886373;29;44892;-89
2023/09/27 00:10:36;;;;;;;;;8.00;7.67;;;;;22.67;65.42;101145.28;4891837;29;45390;-88
2023/09/27 00:13:02;;;;;;;;;10.33;9.00;;;;;22.64;65.86;101148.97;4908465;28;45490;-86
2023/09/27 00:15:28;;;;;;;;;9.33;9.33;;;;;22.55;65.88;101142.00;4924253;28;44773;-87
2023/09/27 00:17:54;;;;;;;;;11.67;11.67;;;;;22.52;66.12;101147.53;4924805;28;44883;-89
2023/09/27 00:20:20;;;;;;;;;9.33;9.33;;;;;22.58;65.78;101154.56;4909153;28;45458;-88
2023/09/27 00:22:47;;;;;;;;;5.33;5.33;;;;;22.55;66.22;101162.81;4907507;29;46949;-89
2023/09/27 00:25:14;;;;;;;;;12.33;9.00;;;;;22.63;65.95;101152.63;4908647;28;45761;-89
2023/09/27 00:27:39;;;;;;;;;8.00;8.00;;;;;22.86;65.14;101145.63;4921014;28;45412;-88
2023/09/27 00:30:09;;;;;;;;;10.00;9.00;;;;;23.06;65.08;101151.34;4904812;29;45547;-87
2023/09/27 00:32:34;;;;;;;;;7.00;7.00;;;;;22.99;64.74;101157.88;4905689;28;45419;-87
2023/09/27 00:35:01;;;;;;;;;10.67;10.67;;;;;22.96;64.92;101131.72;4903221;29;45376;-87
2023/09/27 00:37:27;;;;;;;;;7.00;7.00;;;;;23.08;64.77;101145.88;4919421;28;45573;-88
2023/09/27 00:39:54;;;;;;;;;10.33;8.00;;;;;22.95;64.87;101129.94;4900816;28;45461;-88
2023/09/27 00:42:20;;;;;;;;;12.67;11.00;;;;;22.96;64.41;101134.44;4885982;29;46253;-89
2023/09/27 00:44:45;;;;;;;;;8.67;8.67;;;;;22.98;64.92;101134.38;4886337;29;45346;-87
2023/09/27 00:47:11;;;;;;;;;10.25;10.25;;;;;22.99;64.72;101146.16;4884890;29;44989;-88
2023/09/27 00:49:38;;;;;;;;;9.67;9.33;;;;;23.06;64.69;101136.91;4868783;29;45364;-88
2023/09/27 00:52:04;;;;;;;;;10.00;9.00;;;;;23.00;64.88;101137.06;4886183;29;45691;-88
2023/09/27 00:54:31;;;;;;;;;11.67;10.67;;;;;23.05;64.95;101136.00;4886734;29;45522;-86
2023/09/27 00:56:58;;;;;;;;;10.00;10.00;;;;;23.01;65.17;101136.13;4869410;29;45518;-88
2023/09/27 00:59:26;;;;;;;;;8.33;8.33;;;;;23.05;65.16;101121.56;4886716;29;44864;-86
2023/09/27 01:01:52;;;;;;;;;11.67;11.67;;;;;23.05;65.32;101124.28;4871183;29;45162;-88
2023/09/27 01:04:18;;;;;;;;;9.33;8.67;;;;;22.94;64.98;101122.75;4887579;29;44876;-88
2023/09/27 01:06:44;;;;;;;;;10.33;10.33;;;;;22.91;65.12;101128.28;4887780;29;45502;-87
2023/09/27 01:09:11;;;;;;;;;11.33;11.33;;;;;22.89;65.07;101124.72;4888638;29;45485;-85
2023/09/27 01:11:37;;;;;;;;;9.00;8.00;;;;;22.90;64.90;101133.75;4886003;29;46742;-87
2023/09/27 01:14:03;;;;;;;;;10.67;9.33;;;;;22.87;65.42;101126.59;4888165;29;45333;-87
2023/09/27 01:16:28;;;;;;;;;10.67;8.67;;;;;22.85;65.23;101123.03;4890803;29;44931;-88
2023/09/27 01:18:54;;;;;;;;;13.00;11.67;;;;;22.83;65.15;101122.19;4890832;29;45627;-87
2023/09/27 01:21:20;;;;;;;;;10.33;10.33;;;;;22.85;65.28;101122.16;4876941;29;47049;-89
2023/09/27 01:23:49;;;;;;;;;8.33;8.33;;;;;23.09;65.45;101121.41;4892880;29;44809;-88
2023/09/27 01:26:18;;;;;;;;;12.00;12.00;;;;;23.04;65.41;101128.81;4875850;29;45317;-89
2023/09/27 01:28:46;;;;;;;;;13.67;10.00;;;;;23.15;65.51;101131.19;4875327;29;45377;-86
2023/09/27 01:31:12;;;;;;;;;11.00;11.00;;;;;22.88;65.64;101132.91;4890450;29;45639;-85
2023/09/27 01:33:39;;;;;;;;;12.00;12.00;;;;;22.87;65.72;101142.00;4890497;29;45079;-86
2023/09/27 01:36:39;;;;;;;;;8.00;8.00;;;;;23.24;64.57;101141.72;4889072;29;44836;-87
2023/09/27 01:39:07;;;;;;;;;10.00;9.33;;;;;22.89;65.84;101135.56;4892405;29;44920;-89
2023/09/27 01:41:32;;;;;;;;;11.33;11.33;;;;;22.87;65.82;101126.59;4893491;29;45136;-88
2023/09/27 01:43:58;;;;;;;;;8.00;8.00;;;;;22.86;66.04;101130.22;4890891;29;44781;-85
2023/09/27 01:46:23;;;;;;;;;10.67;10.67;;;;;22.82;65.60;101122.25;4873765;29;45217;-86
2023/09/27 01:48:48;;;;;;;;;10.00;10.00;;;;;22.81;65.97;101132.22;4888342;29;45390;-87
2023/09/27 01:51:14;;;;;;;;;11.33;10.33;;;;;22.85;65.48;101142.03;4888129;29;46803;-88
2023/09/27 01:53:40;;;;;;;;;10.33;9.00;;;;;22.81;65.68;101126.78;4889683;29;44913;-85
2023/09/27 01:56:07;;;;;;;;;10.67;10.67;;;;;22.84;65.53;101139.34;4889916;29;44828;-87
2023/09/27 01:58:32;;;;;;;;;11.00;9.67;;;;;22.83;65.66;101149.31;4893080;29;45843;-85
2023/09/27 02:00:59;;;;;;;;;8.33;8.33;;;;;22.81;65.73;101139.47;4891219;29;46973;-87
2023/09/27 02:03:24;;;;;;;;;9.67;9.67;;;;;22.82;65.69;101141.22;4892338;29;45398;-86
2023/09/27 02:05:52;;;;;;;;;12.67;12.00;;;;;22.79;66.06;101141.34;4893440;29;44939;-86
2023/09/27 02:08:17;;;;;;;;;11.33;11.33;;;;;22.68;66.43;101134.41;4895655;29;45862;-87
2023/09/27 02:10:43;;;;;;;;;10.00;8.67;;;;;22.64;66.50;101132.69;4892619;29;47259;-86
2023/09/27 02:13:09;;;;;;;;;11.00;9.00;;;;;22.63;66.65;101124.63;4892516;29;45548;-89
2023/09/27 02:15:34;;;;;;;;;9.67;9.33;;;;;22.55;67.04;101133.88;4891003;29;45454;-88
2023/09/27 02:17:59;;;;;;;;;11.33;11.00;;;;;22.43;66.93;101107.13;4890342;29;44929;-88
2023/09/27 02:20:32;;;;;;;;;10.00;10.00;;;;;22.44;66.99;101118.84;4891860;29;47176;-87
2023/09/27 02:22:58;;;;;;;;;11.00;11.00;;;;;22.39;67.42;101113.56;4893457;29;45393;-87
2023/09/27 02:25:24;;;;;;;;;11.67;9.33;;;;;22.42;67.66;101115.28;4893453;29;45532;-86
2023/09/27 02:27:50;;;;;;;;;12.33;11.00;;;;;22.41;67.34;101116.25;4891694;29;45470;-86
2023/09/27 02:30:15;;;;;;;;;14.33;12.67;;;;;22.42;67.32;101118.91;4875542;29;47162;-88
2023/09/27 02:32:45;;;;;;;;;12.33;9.67;;;;;22.58;67.29;101108.47;4892931;29;45348;-86
2023/09/27 02:35:13;;;;;;;;;13.00;11.00;;;;;22.45;67.83;101128.78;4892258;29;45730;-88
2023/09/27 02:40:14;;;;;;;;;11.33;10.00;;;;;22.44;68.01;101126.97;4882290;27;45499;-82
2023/09/27 02:42:43;;;;;;;;;12.00;11.00;;;;;22.68;67.68;101128.06;4888487;29;44948;-82
2023/09/27 02:45:10;;;;;;;;;12.33;12.33;;;;;22.44;68.22;101125.19;4888113;29;45380;-82
2023/09/27 02:47:36;;;;;;;;;14.67;14.67;;;;;22.45;67.92;101123.34;4870921;29;45610;-82
2023/09/27 02:50:09;;;;;;;;;13.33;13.33;;;;;22.70;67.85;101123.50;4870360;29;46972;-82
2023/09/27 02:52:35;;;;;;;;;14.00;11.33;;;;;22.46;67.74;101127.81;4870439;29;45406;-82
2023/09/27 02:55:00;;;;;;;;;9.33;9.33;;;;;22.42;68.54;101123.41;4872526;29;45532;-81
2023/09/27 02:57:26;;;;;;;;;14.67;12.67;;;;;22.39;68.23;101123.53;4851258;29;45560;-81
2023/09/27 02:59:53;;;;;;;;;11.33;11.00;;;;;22.59;68.33;101122.94;4850756;29;47064;-81
2023/09/27 03:02:20;;;;;;;;;14.33;12.00;;;;;22.37;68.73;101120.84;4868011;29;45455;-81
2023/09/27 03:04:47;;;;;;;;;11.00;11.00;;;;;22.34;68.65;101116.44;4852249;29;44939;-81
2023/09/27 03:07:15;;;;;;;;;11.00;11.00;;;;;22.54;68.55;101113.13;4867977;29;45421;-81
2023/09/27 03:09:40;;;;;;;;;11.67;11.67;;;;;22.28;68.85;101105.75;4869013;29;45417;-81
2023/09/27 03:12:06;;;;;;;;;15.00;11.33;;;;;22.28;68.78;101111.19;4868884;29;45391;-80
2023/09/27 03:14:32;;;;;;;;;10.00;10.00;;;;;22.21;68.78;101097.81;4854193;29;44784;-81
2023/09/27 03:16:59;;;;;;;;;13.67;13.67;;;;;22.21;69.57;101104.13;4853926;29;45762;-80
2023/09/27 03:19:24;;;;;;;;;10.00;10.00;;;;;22.13;69.22;101100.72;4872900;29;45559;-80
2023/09/27 03:21:51;;;;;;;;;11.33;11.00;;;;;22.11;69.11;101098.06;4857427;29;45408;-80
2023/09/27 03:24:17;;;;;;;;;11.33;11.33;;;;;22.06;69.71;101097.31;4855418;29;45432;-81
2023/09/27 03:26:43;;;;;;;;;11.33;11.33;;;;;22.04;69.77;101101.88;4855096;29;45463;-80
2023/09/27 03:29:10;;;;;;;;;10.67;9.67;;;;;22.16;69.82;101087.13;4871775;29;45404;-81
2023/09/27 03:31:35;;;;;;;;;11.00;11.00;;;;;22.03;69.49;101089.25;4855059;29;46049;-81
2023/09/27 03:34:01;;;;;;;;;13.33;11.33;;;;;22.22;69.65;101086.94;4872721;29;45714;-81
2023/09/27 03:36:28;;;;;;;;;12.00;10.67;;;;;22.03;69.69;101083.84;4872643;29;45405;-82
2023/09/27 03:38:54;;;;;;;;;12.00;11.67;;;;;22.00;70.04;101083.06;4886297;29;45531;-81
2023/09/27 03:41:20;;;;;;;;;15.33;13.67;;;;;21.97;70.20;101079.47;4911125;29;45451;-81
2023/09/27 03:43:46;;;;;;;;;11.33;11.33;;;;;21.97;69.90;101084.03;4894751;29;45381;-80
2023/09/27 03:46:12;;;;;;;;;16.33;15.00;;;;;21.91;70.44;101073.34;4893963;28;45442;-81
2023/09/27 03:48:37;;;;;;;;;16.00;13.00;;;;;21.90;70.61;101077.91;4909119;29;46899;-80
2023/09/27 03:51:03;;;;;;;;;13.33;13.33;;;;;21.87;70.40;101066.25;4910509;29;45553;-81
2023/09/27 03:53:28;;;;;;;;;12.33;11.33;;;;;21.87;70.88;101063.53;4909316;29;45403;-81
2023/09/27 03:55:54;;;;;;;;;12.00;12.00;;;;;21.90;70.42;101063.47;4909787;28;45227;-81
2023/09/27 03:58:20;;;;;;;;;14.00;11.33;;;;;22.03;70.49;101064.00;4911032;29;46342;-81
2023/09/27 04:00:45;;;;;;;;;10.33;10.33;;;;;21.87;70.61;101066.25;4895297;29;46095;-81
2023/09/27 04:03:11;;;;;;;;;10.00;10.00;;;;;21.82;70.61;101051.97;4912513;29;45913;-81
2023/09/27 04:05:36;;;;;;;;;10.67;10.67;;;;;21.80;71.28;101049.28;4910448;29;45446;-82
2023/09/27 04:08:03;;;;;;;;;9.67;8.67;;;;;21.76;71.74;101055.72;4909205;29;47718;-82
2023/09/27 04:13:57;;;;;;;;;12.33;9.33;;;;;21.94;72.25;101051.63;4910873;29;45508;-82
2023/09/27 04:16:23;;;;;;;;;15.33;11.33;;;;;21.60;72.37;101049.84;4894577;29;45605;-83
2023/09/27 04:18:49;;;;;;;;;15.67;14.33;;;;;21.59;72.35;101061.56;4892389;29;47372;-81
2023/09/27 04:21:14;;;;;;;;;12.33;11.33;;;;;21.60;72.87;101062.50;4909183;29;45432;-81
2023/09/27 04:23:41;;;;;;;;;15.00;13.00;;;;;21.72;72.61;101059.44;4910828;29;45737;-80
2023/09/27 04:26:09;;;;;;;;;17.00;15.67;;;;;21.73;72.87;101056.72;4910178;29;45328;-80
2023/09/27 04:28:35;;;;;;;;;14.00;14.00;;;;;21.50;73.46;101037.47;4908653;29;45484;-81
2023/09/27 04:31:00;;;;;;;;;15.00;14.67;;;;;21.47;73.58;101029.44;4890943;29;45524;-81
2023/09/27 04:33:26;;;;;;;;;15.67;14.00;;;;;21.44;74.06;101041.22;4907238;29;45762;-80
2023/09/27 04:35:52;;;;;;;;;13.33;12.67;;;;;21.37;73.97;101043.19;4908543;29;45358;-81
2023/09/27 04:38:17;;;;;;;;;14.67;14.67;;;;;21.36;74.24;101044.09;4907497;29;46696;-81
2023/09/27 04:40:43;;;;;;;;;13.33;11.33;;;;;21.34;73.87;101040.53;4908605;29;45541;-81
2023/09/27 04:43:08;;;;;;;;;12.00;12.00;;;;;21.32;74.41;101037.00;4909686;29;45351;-80
2023/09/27 04:45:34;;;;;;;;;12.33;11.33;;;;;21.27;74.71;101032.63;4909076;29;45443;-80
2023/09/27 04:48:00;;;;;;;;;12.00;12.00;;;;;21.27;74.93;101033.53;4892047;29;45797;-81
2023/09/27 04:50:26;;;;;;;;;13.00;10.67;;;;;21.35;74.93;101020.69;4905825;29;45749;-82
2023/09/27 04:52:52;;;;;;;;;14.00;13.00;;;;;21.19;75.33;101024.72;4890879;29;45431;-81
2023/09/27 04:55:17;;;;;;;;;12.33;12.00;;;;;21.14;76.23;101022.09;4893083;29;45465;-81
2023/09/27 04:57:43;;;;;;;;;4.00;4.00;;;;;21.16;76.75;101013.97;4910467;29;45413;-81
2023/09/27 05:00:18;;;;;;;;;14.33;11.00;;;;;21.03;77.03;101007.09;4893036;28;44828;-81
2023/09/27 05:02:45;;;;;;;;;13.00;13.00;;;;;21.04;77.94;101006.16;4892323;29;45411;-81
2023/09/27 05:05:11;;;;;;;;;14.00;11.33;;;;;20.94;77.50;101014.50;4892182;29;45745;-81
2023/09/27 05:07:36;;;;;;;;;10.67;10.00;;;;;20.88;78.06;101024.56;4892525;29;47073;-81
2023/09/27 05:10:02;;;;;;;;;17.67;14.67;;;;;20.93;77.63;101033.47;4908399;28;45001;-81
2023/09/27 05:12:28;;;;;;;;;12.33;12.00;;;;;20.90;77.60;101038.94;4907697;29;45464;-81
2023/09/27 05:14:53;;;;;;;;;13.67;13.67;;;;;20.89;77.77;101026.38;4907590;29;45392;-81
2023/09/27 05:17:19;;;;;;;;;13.67;13.67;;;;;20.89;78.30;101027.25;4908128;29;45336;-80
2023/09/27 05:19:44;;;;;;;;;16.33;13.33;;;;;20.83;78.08;101022.00;4891861;29;45443;-80
2023/09/27 05:22:11;;;;;;;;;13.00;12.33;;;;;20.82;78.09;101022.03;4908880;29;45826;-80
2023/09/27 05:24:38;;;;;;;;;14.00;12.33;;;;;20.85;77.77;101032.78;4910010;29;45362;-81
2023/09/27 05:27:06;;;;;;;;;14.33;14.33;;;;;20.92;77.67;101043.38;4912404;28;45239;-80
2023/09/27 05:29:31;;;;;;;;;14.33;12.00;;;;;20.88;77.21;101044.38;4892850;28;45510;-81
2023/09/27 05:31:57;;;;;;;;;15.67;14.00;;;;;20.92;77.40;101053.31;4891345;29;45479;-82
2023/09/27 05:34:23;;;;;;;;;14.00;14.00;;;;;20.97;76.90;101059.50;4908566;29;45413;-82
2023/09/27 05:36:48;;;;;;;;;12.00;12.00;;;;;20.95;76.64;101061.38;4907697;29;48265;-81
2023/09/27 05:39:14;;;;;;;;;15.33;13.00;;;;;21.06;76.29;101067.38;4883853;29;45466;-81
2023/09/27 05:41:40;;;;;;;;;13.67;13.33;;;;;21.11;75.93;101065.47;4889332;29;45337;-81
2023/09/27 05:44:05;;;;;;;;;12.33;12.33;;;;;21.15;76.02;101050.06;4873474;29;45484;-82
2023/09/27 05:46:33;;;;;;;;;16.00;14.67;;;;;21.21;75.67;101063.44;4890387;29;45328;-81
2023/09/27 05:49:01;;;;;;;;;18.00;18.00;;;;;21.32;75.90;101065.88;4872247;29;45593;-81
2023/09/27 05:51:30;;;;;;;;;19.00;19.00;;;;;21.21;75.88;101055.31;4875462;29;44839;-81
2023/09/27 05:53:56;;;;;;;;;18.33;17.00;;;;;21.20;76.31;101056.25;4876110;29;45747;-82
2023/09/27 05:56:22;;;;;;;;;16.33;16.33;;;;;21.13;76.31;101057.34;4873693;29;46962;-81
2023/09/27 05:58:47;;;;;;;;;15.67;15.00;;;;;21.10;76.02;101063.69;4889537;29;45369;-82
2023/09/27 06:04:35;;;;;;;;;15.00;14.00;;;;;21.07;76.03;101074.59;4893055;29;45408;-81
2023/09/27 06:07:00;;;;;;;;;14.67;13.00;;;;;21.12;76.47;101082.59;4891657;29;46091;-81
2023/09/27 06:09:26;;;;;;;;;17.00;13.33;;;;;21.15;75.70;101082.53;4891192;29;45305;-80
2023/09/27 06:11:52;;;;;;;;;17.67;14.67;;;;;21.20;75.61;101090.53;4873978;29;45376;-81
2023/09/27 06:17:42;;;;;;;;;15.00;15.00;;;;;21.45;75.24;101090.81;4894629;29;44838;-87
2023/09/27 06:20:15;;;;;;;;;14.67;13.00;;;;;21.52;74.93;101087.91;4876548;29;44751;-86
2023/09/27 06:22:42;;;;;;;;;18.00;15.00;;;;;21.56;74.88;101092.31;4892600;29;45514;-88
2023/09/27 06:25:07;;;;;;;;;15.00;12.33;;;;;21.59;74.74;101107.59;4893701;29;44788;-89
2023/09/27 06:27:34;;;;;;;;;16.00;14.00;;;;;21.61;74.54;101096.72;4877036;29;46978;-87
2023/09/27 06:30:03;;;;;;;;;15.00;15.00;;;;;21.85;74.49;101100.59;4893759;29;45437;-87
2023/09/27 06:32:29;;;;;;;;;16.33;15.00;;;;;21.80;74.25;101108.84;4875186;29;44858;-86
2023/09/27 06:34:54;;;;;;;;;13.00;13.00;;;;;21.91;73.77;101106.72;4891480;29;45465;-88
2023/09/27 06:37:20;;;;;;;;;26.33;23.00;;;;;21.95;73.47;101111.13;4892001;29;46674;-86
2023/09/27 06:39:46;;;;;;;;;17.33;17.33;;;;;21.85;73.85;101108.72;4893371;29;45305;-85
2023/09/27 06:42:12;;;;;;;;;23.67;21.33;;;;;21.85;74.01;101100.59;4893454;29;45488;-86
2023/09/27 06:44:41;;;;;;;;;32.33;24.67;;;;;21.91;73.94;101105.84;4894700;29;44799;-87
2023/09/27 06:47:06;;;;;;;;;24.67;24.67;;;;;21.98;73.81;101108.34;4896969;29;46287;-86
2023/09/27 06:49:32;;;;;;;;;25.33;24.67;;;;;22.08;73.70;101113.53;4897358;29;44821;-88
2023/09/27 06:51:58;;;;;;;;;26.00;26.00;;;;;22.17;73.50;101122.25;4881920;29;44907;-88
2023/09/27 06:54:25;;;;;;;;;29.33;27.00;;;;;22.24;73.28;101095.03;4897944;29;44893;-86
2023/09/27 06:56:53;;;;;;;;;27.67;26.67;;;;;22.46;72.70;101089.88;4894887;29;47120;-88
2023/09/27 06:59:26;;;;;;;;;27.00;26.33;;;;;22.60;72.51;101095.78;4898041;29;45351;-88
2023/09/27 07:01:53;;;;;;;;;24.67;21.67;;;;;22.56;72.59;101095.00;4880006;29;45513;-88
2023/09/27 07:04:18;;;;;;;;;30.67;29.67;;;;;22.38;72.78;101092.84;4881471;29;45014;-87
2023/09/27 07:06:55;;;;;;;;;26.00;24.33;;;;;22.55;72.49;101085.06;4898761;29;45476;-87
2023/09/27 07:09:24;;;;;;;;;27.00;23.33;;;;;22.60;72.62;101073.19;4882929;29;44760;-86
2023/09/27 07:15:50;;;;;;;;;25.67;24.00;;;;;22.95;71.48;101081.13;4895860;28;44899;-87
2023/09/27 07:18:31;;;;;;;;;27.67;26.33;;;;;22.91;71.65;101067.72;4857071;29;45388;-87
2023/09/27 07:21:12;;;;;;;;;29.00;28.67;;;;;22.94;72.07;101073.91;4857116;29;45531;-89
2023/09/27 07:27:59;;;;;;;;;26.33;26.33;;;;;23.17;71.10;101059.66;4839122;29;45912;-88
2023/09/27 07:36:25;;;;;;;;;;;;;;;;;;;;;
2023/09/27 07:39:31;;;;;;;;;30.00;24.00;;;;;23.41;70.37;101077.88;4836165;29;66039;-87
2023/09/27 07:42:06;;;;;;;;;30.67;28.33;;;;;23.33;70.26;101073.59;4819375;29;46840;-88
2023/09/27 07:45:33;;;;;;;;;;;;;;;;;;;;;
2023/09/27 07:51:48;;;;;;;;;29.00;25.67;;;;;23.92;69.10;101087.91;4687955;30;45667;-87
2023/09/27 08:01:17;;;;;;;;;;;;;;;;;;;;;
2023/09/27 08:04:12;;;;;;;;;34.67;32.67;;;;;24.28;68.06;101061.19;4668819;30;44802;-85
2023/09/27 08:06:38;;;;;;;;;29.33;27.67;;;;;24.10;68.26;101054.63;4663336;30;45469;-85
2023/09/27 08:16:36;;;;;;;;;20.00;20.00;;;;;24.55;66.82;101010.31;4567758;30;44913;-87
2023/09/27 08:19:28;;;;;;;;;17.33;16.00;;;;;24.71;66.14;101023.31;4557397;30;46458;-88
2023/09/27 08:23:05;;;;;;;;;;;;;;;;;;;;;
2023/09/27 08:25:48;;;;;;;;;24.00;21.33;;;;;24.79;65.96;101040.22;4567187;31;68006;-87
2023/09/27 08:53:06;;;;;;;;;;;;;;;;;;;;;
2023/09/27 08:59:41;;;;;;;;;16.67;15.33;;;;;25.32;64.21;100979.06;6263309;22;44853;-82
2023/09/27 09:02:59;;;;;;;;;;;;;;;;;;;;;
2023/09/27 09:06:36;;;;;;;;;13.67;13.67;;;;;25.34;62.63;100975.31;6145002;23;68100;-85
2023/09/27 09:16:23;;;;;;;;;13.67;11.67;;;;;25.41;59.94;100969.59;6111449;23;44799;-86
2023/09/27 09:19:19;;;;;;;;;12.33;12.33;;;;;25.34;60.90;100967.13;6143838;23;45378;-85
2023/09/27 09:25:17;;;;;;;;;10.33;9.67;;;;;25.51;60.28;100962.78;6072492;23;45193;-83
2023/09/27 09:28:20;;;;;;;;;10.33;10.33;;;;;25.76;60.36;100989.81;6167204;23;45508;-86
2023/09/27 09:35:17;;;;;;;;;11.00;11.00;;;;;26.00;59.48;100976.06;6173335;23;44949;-86
2023/09/27 09:45:43;;;;;;;;;9.67;9.67;;;;;26.41;58.03;100976.81;6023505;23;45557;-82
2023/09/27 09:54:57;;;;;;;;;7.33;7.33;;;;;26.43;56.78;100952.19;6209639;22;45583;-85
2023/09/27 09:57:57;;;;;;;;;6.25;5.00;;;;;26.37;56.93;100931.56;6161606;22;45445;-86
2023/09/27 10:06:52;;;;;;;;;9.67;7.00;;;;;26.74;57.50;100932.47;6158383;23;45349;-80
2023/09/27 10:09:28;;;;;;;;;10.67;9.00;;;;;26.76;56.10;100922.38;6110834;23;44878;-83
2023/09/27 10:12:03;;;;;;;;;9.67;8.67;;;;;26.83;56.00;100910.19;6155077;22;45550;-82
2023/09/27 10:14:29;;;;;;;;;10.67;9.33;;;;;26.68;55.72;100908.25;6223633;22;45419;-82
2023/09/27 10:17:41;;;;;;;;;8.33;8.00;;;;;27.06;54.65;100898.06;6227239;22;44692;-79
2023/09/27 10:26:36;;;;;;;;;10.33;10.33;;;;;27.08;54.85;100896.16;6133905;23;46040;-80
2023/09/27 10:29:23;;;;;;;;;10.25;9.75;;;;;26.85;55.71;100902.81;6146595;23;45237;-80
2023/09/27 10:32:44;;;;;;;;;14.67;12.00;;;;;27.34;54.24;100892.06;6124463;23;44753;-79
2023/09/27 10:35:17;;;;;;;;;9.75;9.00;;;;;27.41;54.01;100894.47;6146771;23;44734;-79
2023/09/27 10:38:15;;;;;;;;;11.50;10.75;;;;;27.40;53.08;100873.59;6118798;23;46901;-80
2023/09/27 10:44:50;;;;;;;;;;;;;;;;;;;;;
2023/09/27 10:51:20;;;;;;;;;8.00;8.00;;;;;27.65;54.01;100900.44;5883430;24;45176;-79
2023/09/27 10:54:03;;;;;;;;;13.00;13.00;;;;;28.01;53.48;100888.47;5963284;23;44784;-79
2023/09/27 10:56:32;;;;;;;;;11.00;11.00;;;;;27.95;53.49;100880.63;5967480;23;45322;-78
2023/09/27 10:59:37;;;;;;;;;;;;;;;;;;;;;
2023/09/27 11:02:09;;;;;;;;;9.33;9.00;;;;;28.56;53.54;100892.66;5961560;23;74475;-77
2023/09/27 11:04:36;;;;;;;;;8.33;8.33;;;;;28.64;53.52;100907.66;5948555;23;45459;-79
2023/09/27 11:07:02;;;;;;;;;70.25;61.00;;;;;28.82;53.46;100905.66;5952278;23;45470;-78
2023/09/27 11:09:28;;;;;;;;;24.33;20.33;;;;;29.01;52.74;100907.31;5955692;23;45853;-78
2023/09/27 11:11:57;;;;;;;;;27.33;23.33;;;;;29.36;52.76;100901.56;5958733;23;45374;-78
2023/09/27 11:14:25;;;;;;;;;11.67;11.67;;;;;29.54;49.36;100896.78;5951980;23;45791;-79
2023/09/27 11:16:51;;;;;;;;;13.33;12.00;;;;;29.38;49.78;100902.34;5952056;23;45445;-80
2023/09/27 11:19:29;;;;;;;;;13.00;11.00;;;;;29.74;49.20;100892.81;5953994;23;45714;-76
2023/09/27 11:21:54;;;;;;;;;11.33;10.33;;;;;29.56;47.75;100883.88;5982554;23;46665;-75
2023/09/27 11:24:20;;;;;;;;;10.75;10.75;;;;;29.67;48.70;100871.25;6041267;23;45331;-77
2023/09/27 11:26:45;;;;;;;;;9.00;7.33;;;;;29.69;47.03;100869.28;6186958;22;44884;-77
2023/09/27 11:29:11;;;;;;;;;8.25;8.25;;;;;29.67;46.81;100857.53;6214885;22;45458;-77
2023/09/27 11:31:39;;;;;;;;;10.33;8.00;;;;;29.83;45.72;100843.72;6219386;22;44848;-80
2023/09/27 11:34:17;;;;;;;;;11.33;9.00;;;;;29.89;46.11;100842.44;6220780;22;45401;-78
2023/09/27 11:36:45;;;;;;;;;13.67;10.67;;;;;29.73;45.86;100831.59;6215338;22;45454;-76
2023/09/27 11:39:16;;;;;;;;;5.00;5.00;;;;;29.87;46.37;100833.44;6200407;22;45316;-77
2023/09/27 11:41:45;;;;;;;;;7.00;6.00;;;;;29.80;46.50;100807.44;6219751;22;45446;-78
2023/09/27 11:44:25;;;;;;;;;9.67;7.67;;;;;30.09;44.68;100800.88;6220415;22;45547;-78
2023/09/27 11:47:12;;;;;;;;;8.33;8.33;;;;;29.85;44.85;100797.91;6191846;22;44921;-78
2023/09/27 11:49:37;;;;;;;;;6.00;6.00;;;;;29.75;44.31;100779.41;6190062;22;45509;-77
2023/09/27 11:52:11;;;;;;;;;6.33;6.33;;;;;29.74;44.83;100773.06;6215743;22;45320;-76
2023/09/27 11:54:45;;;;;;;;;7.75;6.75;;;;;29.66;45.67;100767.19;6140484;22;45428;-76
2023/09/27 11:57:13;;;;;;;;;7.00;6.00;;;;;29.91;44.64;100771.94;6186713;22;45322;-76
2023/09/27 11:59:39;;;;;;;;;8.25;6.50;;;;;29.73;45.17;100768.56;6187632;22;45446;-76
2023/09/27 12:02:04;;;;;;;;;7.67;7.67;;;;;29.87;45.48;100773.13;6218307;22;45359;-77
2023/09/27 12:04:30;;;;;;;;;7.25;7.00;;;;;29.88;44.95;100774.91;6186197;22;44839;-77
2023/09/27 12:06:57;;;;;;;;;7.75;6.25;;;;;29.86;44.62;100760.41;6187518;22;45393;-76
2023/09/27 12:09:22;;;;;;;;;7.00;5.00;;;;;29.82;44.13;100759.72;6214797;22;45383;-75
2023/09/27 12:11:48;;;;;;;;;5.25;5.25;;;;;29.65;44.26;100747.13;6213651;22;45284;-75
2023/09/27 12:14:13;;;;;;;;;5.25;4.50;;;;;29.56;44.56;100747.72;6188403;22;45368;-75
2023/09/27 12:16:45;;;;;;;;;8.25;8.00;;;;;29.65;45.13;100754.44;6186878;22;45367;-77
2023/09/27 12:19:11;;;;;;;;;7.50;6.75;;;;;29.45;45.00;100756.66;6214431;22;45446;-75
2023/09/27 12:21:36;;;;;;;;;8.50;8.50;;;;;29.49;45.73;100754.56;6183950;22;46056;-76
2023/09/27 12:24:03;;;;;;;;;6.75;6.75;;;;;29.60;44.94;100752.00;6175726;23;45633;-76
2023/09/27 12:26:33;;;;;;;;;6.25;4.75;;;;;29.75;45.06;100755.63;6155716;23;45354;-75
2023/09/27 12:28:59;;;;;;;;;6.67;6.67;;;;;29.48;45.77;100755.56;6182723;23;45467;-75
2023/09/27 12:31:24;;;;;;;;;5.75;5.75;;;;;29.46;45.62;100738.34;6155836;23;47453;-76
2023/09/27 12:33:51;;;;;;;;;6.00;6.00;;;;;29.70;45.52;100733.09;6184313;23;45417;-75
2023/09/27 12:36:16;;;;;;;;;5.25;5.25;;;;;29.53;45.95;100725.97;6183440;23;45320;-76
2023/09/27 12:38:42;;;;;;;;;7.75;4.75;;;;;29.59;45.54;100724.69;6182167;23;45351;-75
2023/09/27 12:41:22;;;;;;;;;7.67;6.33;;;;;29.57;45.12;100716.59;6159893;23;46259;-75
2023/09/27 12:53:34;;;;;;;;;7.00;6.00;;;;;29.66;45.55;100715.09;6088938;23;45572;-76
2023/09/27 12:56:00;;;;;;;;;5.00;5.00;;;;;29.67;45.02;100706.78;6064413;23;45414;-77
2023/09/27 12:58:25;;;;;;;;;5.00;5.00;;;;;29.84;45.70;100713.03;6090684;23;45569;-76
2023/09/27 13:00:51;;;;;;;;;5.67;5.67;;;;;29.90;45.99;100707.13;6090066;23;45371;-76
2023/09/27 13:03:16;;;;;;;;;5.00;5.00;;;;;29.95;44.84;100707.69;6089193;23;46004;-76
2023/09/27 13:05:41;;;;;;;;;3.00;3.00;;;;;29.98;44.36;100693.78;6090151;23;45403;-76
2023/09/27 13:08:07;;;;;;;;;5.00;4.75;;;;;30.03;44.50;100696.19;6092216;23;45387;-76
2023/09/27 13:10:32;;;;;;;;;5.67;5.67;;;;;30.08;44.65;100705.00;6091112;23;45376;-76
2023/09/27 13:12:59;;;;;;;;;4.33;3.67;;;;;30.25;44.00;100701.09;6091946;23;47002;-75
2023/09/27 13:15:25;;;;;;;;;5.25;5.25;;;;;30.32;44.56;100696.97;6069685;23;45513;-75
2023/09/27 13:17:50;;;;;;;;;5.00;5.00;;;;;30.37;43.60;100694.78;6091541;23;45511;-74
2023/09/27 13:20:16;;;;;;;;;6.00;6.00;;;;;30.51;44.48;100691.06;6090703;23;45378;-76
2023/09/27 13:22:41;;;;;;;;;8.00;8.00;;;;;30.59;44.09;100685.03;6091285;23;47277;-77
2023/09/27 13:25:10;;;;;;;;;5.00;5.00;;;;;30.81;45.10;100679.78;6202339;22;45345;-75
2023/09/27 13:27:36;;;;;;;;;5.50;5.50;;;;;30.74;44.96;100670.22;6214536;22;45332;-76
2023/09/27 13:30:01;;;;;;;;;5.75;5.75;;;;;30.70;43.81;100665.94;6214924;22;45595;-75
2023/09/27 13:32:27;;;;;;;;;4.00;4.00;;;;;30.65;43.49;100654.41;6213221;22;45320;-77
2023/09/27 13:34:52;;;;;;;;;4.75;4.75;;;;;30.61;43.05;100641.91;6213392;22;45350;-76
2023/09/27 13:37:19;;;;;;;;;4.00;4.00;;;;;30.58;42.71;100643.00;6185252;22;45693;-75
2023/09/27 13:39:45;;;;;;;;;3.67;3.33;;;;;30.54;42.42;100637.81;6185644;22;45337;-76
2023/09/27 13:42:11;;;;;;;;;5.00;5.00;;;;;30.57;42.58;100632.13;6211818;22;46982;-74
2023/09/27 13:44:37;;;;;;;;;5.75;4.00;;;;;30.63;42.50;100623.44;6186747;22;45448;-76
2023/09/27 13:47:02;;;;;;;;;2.00;2.00;;;;;30.67;42.49;100631.34;6187496;22;45396;-75
2023/09/27 13:49:29;;;;;;;;;4.50;4.50;;;;;30.66;42.17;100623.22;6201663;22;45510;-74